x

West Washington - 300nm West Of Aberdeen, Wa (46005) Weather Station

5:20am - Mon 23rd Oct 2017 All times are UTC.

  • Wind
    16mph, 20mph gusts
  • Sea Temp 59°f
  • Air Temp 59°f
  • Sea Pressure 1025.9mb

More Historic Weather Station data

Upgrade to MSW Pro to gain access to the past 30 days of data for over 8000 Wavebouys and Weather Stations around the globe.

Join

Comparision Forecast

View Surf forecast
   
Mon 10/23 5:20am  -   -   -  16 20 mph 1025.9mb 59f 59f
5:10am  -   -   -  16 20 mph 1026mb 59f 59f
5:00am  -   -   -  13 20 mph 1026mb 59f 59f
4:50am 12.5ft 13s 9s 13 18 mph 1025.8mb 59f 59f
4:40am  -   -   -  13 18 mph 1025.8mb 59f 59f
4:30am  -   -   -  13 20 mph 1025.8mb - -
4:20am  -   -   -  13 18 mph 1025.8mb 59f 59f
4:10am  -   -   -  11 16 mph 1025.8mb 59f 59f
4:00am  -   -   -  11 16 mph 1025.7mb 59f 59f
3:50am 15ft 13s 9s 11 18 mph 1025.5mb 59f 59f
3:40am 15ft  -  9s 11 16 mph 1025.6mb 59f 59f
3:30am  -   -   -  11 16 mph 1025.5mb - 59f
3:20am  -   -   -  11 16 mph 1025.5mb 59f 59f
3:10am  -   -   -  11 16 mph 1025.4mb 59f 59f
3:00am  -   -   -  13 16 mph 1025.4mb 59f 59f
2:50am 13.5ft 14s 9s 13 18 mph 1025.2mb 59f 59f
2:40am 13.5ft  -  9s 13 18 mph 1025.1mb 59f 59f
2:30am  -   -   -  11 16 mph 1025mb 59f 59f
2:20am  -   -   -  11 16 mph 1025mb 59f 59f
2:10am  -   -   -  11 16 mph 1024.9mb - 59f
2:00am  -   -   -  9 13 mph 1025mb 59f 59f
1:50am 14.5ft 14s 9s 9 11 mph 1025mb 59f 59f
1:40am 14.5ft  -  9s 9 11 mph 1024.6mb 59f 59f
1:30am  -   -   -  9 11 mph 1024.5mb 59f 59f
1:20am  -   -   -  9 13 mph 1024.5mb 59f 59f
1:10am  -   -   -  9 13 mph 1024.7mb 59f 59f
1:00am  -   -   -  9 13 mph 1024.6mb 59f 59f
12:50am 15ft 13s 10s 9 13 mph 1024.6mb 59f 59f
12:40am 15ft  -  10s 9 13 mph 1024.5mb 59f 59f
12:30am  -   -   -  11 16 mph 1024.6mb 59f 59f
12:20am  -   -   -  11 18 mph 1024.6mb 59f 59f
12:10am  -   -   -  11 16 mph 1024.7mb 59f 59f
12:00am  -   -   -  11 16 mph 1025.2mb 59f 59f
Sun 10/22 11:50pm 15ft 13s 9s 13 18 mph 1024.5mb 59f 59f
11:40pm 15ft  -  9s 13 18 mph 1024.1mb 59f 59f
11:20pm  -   -   -  13 18 mph 1023.6mb 59f 59f
11:10pm  -   -   -  13 18 mph 1023.5mb 59f 59f
11:00pm  -   -   -  13 18 mph 1023.4mb 59f 59f
10:50pm 17.5ft 13s 10s 13 20 mph 1023.3mb 59f 59f
10:40pm 17.5ft  -  10s 16 20 mph 1023.5mb 59f 59f
10:30pm  -   -   -  16 22 mph 1023.5mb - 59f
10:20pm  -   -   -  13 22 mph 1023.3mb 59f 59f
10:10pm  -   -   -  16 22 mph 1023.2mb 59f 59f
10:00pm  -   -   -  18 22 mph 1023.1mb 59f 59f
9:50pm 17ft 13s 9s 16 22 mph 1023.1mb 59f 59f
9:40pm 17ft  -  9s 18 25 mph 1022.9mb 59f 59f
9:30pm  -   -   -  18 22 mph 1022.9mb - 59f
9:20pm  -   -   -  16 22 mph 1022.9mb 59f 59f
9:10pm  -   -   -  16 22 mph 1022.8mb 59f 59f
9:00pm  -   -   -  18 22 mph 1022.6mb 59f 59f
8:50pm 15.5ft 13s 9s 18 22 mph 1022.1mb 59f 59f
8:40pm 15.5ft  -  9s 16 25 mph 1021.9mb 59f 59f
8:30pm  -   -   -  18 25 mph 1021.7mb 59f 59f
8:20pm  -   -   -  13 20 mph 1021.8mb 59f 58f
8:10pm  -   -   -  13 18 mph 1021.7mb 59f 57f
8:00pm  -   -   -  18 31 mph 1021.8mb 59f 57f
7:50pm 15.5ft 13s 9s 20 31 mph 1021.8mb 59f 59f
7:40pm  -   -   -  18 25 mph 1021.5mb 59f 59f
7:30pm  -   -   -  16 22 mph 1021.4mb 59f 59f
7:20pm  -   -   -  18 22 mph 1021.3mb 59f 59f
7:10pm  -   -   -  18 25 mph 1021.2mb 59f 59f
7:00pm  -   -   -  20 25 mph 1020.9mb 59f 59f
6:50pm 17ft 12s 9s 20 27 mph 1020.8mb 59f 59f
6:40pm  -   -   -  20 27 mph 1020.8mb 59f 59f
6:30pm  -   -   -  18 25 mph 1020.6mb 59f 58f
6:20pm  -   -   -  20 25 mph 1020.5mb 59f 58f
6:10pm  -   -   -  20 27 mph 1020.1mb 59f 58f
6:00pm  -   -   -  18 25 mph 1020mb 59f 57f
5:50pm 17.5ft 13s 9s 22 31 mph 1019.8mb 59f 58f
5:40pm 17.5ft  -  9s 20 27 mph 1019.6mb 59f 59f
5:30pm  -   -   -  22 29 mph 1019.3mb - 59f
5:20pm  -   -   -  25 29 mph 1019.8mb 59f 59f
5:10pm  -   -   -  22 29 mph 1018.9mb 59f 59f
5:00pm  -   -   -  22 29 mph 1018.7mb 59f 59f
4:50pm 18ft 12s 9s 22 31 mph 1018.5mb 59f 59f
4:40pm 18ft  -  9s 22 29 mph 1018.6mb 59f 59f
4:30pm  -   -   -  22 29 mph 1018.3mb 59f 59f
4:20pm  -   -   -  22 29 mph 1018.1mb 59f 59f
4:10pm  -   -   -  22 29 mph 1017.9mb 59f 59f
4:00pm  -   -   -  22 31 mph 1017.7mb 59f 59f
3:50pm 17.5ft 11s 9s 22 29 mph 1017.5mb 59f 58f
3:40pm 17.5ft  -  9s 22 31 mph 1017.2mb 59f 58f
3:30pm  -   -   -  22 29 mph 1017mb 59f 58f
3:20pm  -   -   -  22 29 mph 1016.7mb 59f 58f
3:10pm  -   -   -  22 29 mph 1016.5mb 59f 57f
3:00pm  -   -   -  27 38 mph 1016.3mb 59f 56f
2:50pm 17.5ft 11s 9s 25 31 mph 1016.1mb 59f 58f
2:40pm 17.5ft  -  9s 22 29 mph 1015.9mb 59f 58f
2:30pm  -   -   -  25 34 mph 1015.6mb 59f 58f
2:20pm  -   -   -  27 36 mph 1015.5mb 59f 58f
2:10pm  -   -   -  29 36 mph 1015.3mb 59f 58f
2:00pm  -   -   -  27 34 mph 1015.2mb 59f 58f
1:50pm 18ft 11s 8s 29 38 mph 1015mb 59f 58f
1:40pm 18ft  -  8s 25 34 mph 1014.7mb 59f 58f
1:30pm  -   -   -  27 34 mph 1014.6mb 59f 58f
1:20pm  -   -   -  29 36 mph 1014.4mb 59f 58f
1:10pm  -   -   -  27 36 mph 1014.3mb 59f 58f
1:00pm  -   -   -  22 34 mph 1014.1mb - 58f
12:50pm 16.5ft 11s 8s 27 36 mph 1013.9mb 59f 58f
12:40pm  -   -   -  29 36 mph 1013.5mb 59f 58f
12:30pm  -   -   -  25 31 mph 1013.2mb 59f 59f
12:20pm  -   -   -  29 38 mph 1013.8mb 59f 58f
12:10pm  -   -   -  27 36 mph 1012.8mb 59f 58f
12:00pm  -   -   -  27 36 mph 1012.6mb 59f 58f
11:50am 18ft  -  8s 29 36 mph 1012.4mb 59f 59f
11:40am 18ft 11s 8s  -  mph - - -
11:30am  -   -   -  27 34 mph 1012.1mb - 58f
11:20am  -   -   -  27 36 mph 1012mb 59f 58f
11:10am  -   -   -  29 38 mph 1011.8mb 59f 58f
11:00am  -   -   -  29 36 mph 1011.8mb 59f 58f
10:50am 15.5ft 11s 8s 29 40 mph 1011.4mb 59f 58f
10:40am 15.5ft  -  8s 25 34 mph 1011.2mb 59f 58f
10:30am  -   -   -  27 36 mph 1010.9mb 59f 58f
10:20am  -   -   -  27 36 mph 1010.9mb 59f 58f
10:10am  -   -   -  29 38 mph 1010.8mb 59f 58f
10:00am  -   -   -  31 38 mph 1010.7mb 59f 58f
9:50am 15ft 11s 8s 29 38 mph 1010.3mb 59f 58f
9:40am 15ft  -  8s 29 40 mph 1010.3mb 59f 58f
9:30am  -   -   -  31 43 mph 1010mb 59f 58f
9:20am  -   -   -  29 36 mph 1009.8mb 59f 58f
9:10am  -   -   -  29 38 mph 1009.6mb 59f 59f
9:00am  -   -   -  29 40 mph 1009.5mb 59f 58f
8:50am 16.5ft 11s 8s 29 38 mph 1009.4mb 59f 58f
8:40am 16.5ft  -  8s 29 38 mph 1009.1mb 59f 58f
8:30am  -   -   -  29 38 mph 1008.8mb 59f 58f
8:20am  -   -   -  29 40 mph 1008.5mb 59f 58f
8:10am  -   -   -  29 38 mph 1008.6mb - 59f
8:00am  -   -   -  29 38 mph 1008.2mb 59f 59f
7:50am 16.5ft 11s 8s 31 38 mph 1008.1mb 59f 59f
7:40am  -   -   -  31 40 mph 1007.6mb 59f 59f
7:30am  -   -   -  31 38 mph 1007.4mb 59f 59f
7:20am  -   -   -  31 43 mph 1007.2mb 59f 59f
7:10am  -   -   -  29 36 mph 1007.1mb 59f 59f
7:00am  -   -   -  25 36 mph 1007mb 59f 59f
6:50am 15ft 11s 8s 29 45 mph 1006.8mb 59f 59f
6:40am  -   -   -  31 45 mph 1006.3mb 59f 59f
6:30am  -   -   -  31 43 mph 1006.1mb 59f 59f
6:20am  -   -   -  29 40 mph 1005.9mb 59f 59f
6:10am  -   -   -  31 40 mph 1005.8mb 59f 59f
6:00am  -   -   -  31 43 mph 1005.5mb 59f 59f
5:50am 15.5ft 11s 8s 31 43 mph 1005.5mb 59f 59f
5:40am  -   -   -  31 43 mph 1005.1mb 59f 59f
5:30am  -   -   -  27 36 mph 1004.9mb 59f 58f
5:20am  -   -   -  29 38 mph 1004.7mb 59f 59f
5:10am  -   -   -  29 40 mph 1004.5mb 59f 59f
5:00am  -   -   -  29 38 mph 1004.3mb 59f 59f
4:50am 15.5ft 9s 8s 29 38 mph 1004.1mb 59f 59f
4:40am  -   -   -  29 38 mph 1004.1mb 59f 59f
4:30am  -   -   -  29 36 mph 1003.6mb - -
4:20am  -   -   -  29 38 mph 1003.7mb 59f 59f
4:10am  -   -   -  31 40 mph 1003.3mb 59f 59f
4:00am  -   -   -  31 38 mph 1003mb 59f 59f
3:50am 14.5ft 11s 8s 29 38 mph 1002.8mb 59f 58f
3:40am  -   -   -  31 40 mph 1002.5mb 59f 58f
3:30am  -   -   -  31 40 mph 1002.3mb 59f 58f
3:20am  -   -   -  29 36 mph 1002mb 59f 58f
3:10am  -   -   -  29 38 mph 1001.9mb - 57f
3:00am  -   -   -  31 43 mph 1001.6mb - 56f
2:50am 14ft 11s 7s 31 40 mph 1001.9mb 59f 60f
2:40am  -   -   -  29 38 mph 1001.1mb 59f 60f
2:30am  -   -   -  29 40 mph 1001.1mb 59f 60f
2:20am  -   -   -  29 36 mph 1000.8mb 59f 60f
2:10am  -   -   -  31 40 mph 1000.7mb 59f 60f
2:00am  -   -   -  34 40 mph 1000.7mb 59f 60f
1:50am 15ft 11s 7s 29 38 mph 1000.5mb 59f 60f
1:30am 15ft  -  7s 31 38 mph 1000.3mb 59f 60f
1:20am  -   -   -  29 38 mph 1000.1mb 59f 60f
1:10am  -   -   -  29 38 mph 1000.2mb 59f 60f
1:00am  -   -   -  31 40 mph 1000.1mb 59f 60f
12:50am 14.5ft 10s 7s 29 38 mph 1000mb 59f 60f
12:40am 14.5ft  -  7s 31 40 mph 1000.1mb 59f 60f
12:30am  -   -   -  31 38 mph 1000mb 59f 60f
12:20am  -   -   -  34 43 mph 1000.7mb 59f 60f
12:10am  -   -   -  31 40 mph 999.8mb 59f 60f
12:00am  -   -   -  31 40 mph 999.8mb 59f 60f
Sat 10/21 11:50pm 13ft 10s 7s 31 40 mph 999.8mb 59f 60f
11:40pm  -   -   -  29 38 mph 999.6mb 59f 60f
11:20pm  -   -   -  29 38 mph 999.4mb 59f 60f
11:10pm  -   -   -  29 38 mph 999.2mb 59f 60f
11:00pm  -   -   -  29 36 mph 999.1mb 59f 60f
10:50pm 13ft 10s 7s 29 38 mph 999.3mb 59f 60f
10:40pm 13ft  -  7s 29 38 mph 999.2mb 59f 60f
10:30pm  -   -   -  29 36 mph 999mb - -
10:20pm  -   -   -  27 36 mph 999.2mb 59f 59f
10:10pm  -   -   -  29 38 mph 999.3mb 59f 59f
10:00pm  -   -   -  29 38 mph 999.1mb - 59f
9:50pm 13ft 11s 7s 27 34 mph 999mb 59f 59f
9:40pm 13ft  -  7s 27 31 mph 999.3mb 59f 58f
9:30pm  -   -   -  27 34 mph 999.4mb 59f 58f
9:20pm  -   -   -  27 34 mph 999.2mb 59f 58f
9:10pm  -   -   -  25 31 mph 999.2mb 59f 59f
9:00pm  -   -   -  27 31 mph 999.2mb 59f 59f
8:50pm 12.5ft 11s 7s 25 34 mph 998.9mb 59f 59f
8:40pm 12.5ft  -  7s 27 34 mph 998.8mb 59f 59f
8:30pm  -   -   -  27 34 mph 998.8mb 59f 59f
8:20pm  -   -   -  25 34 mph 998.9mb 59f 59f
8:10pm  -   -   -  25 34 mph 998.8mb 59f 59f
8:00pm  -   -   -  25 31 mph 998.6mb 59f 59f
7:50pm 12.5ft 11s 7s 27 36 mph 998.5mb 59f 60f
7:40pm 12.5ft  -  7s 27 36 mph 998.2mb 59f 60f
7:30pm  -   -   -  27 34 mph 998.1mb 59f 60f
7:20pm  -   -   -  27 34 mph 998.1mb 59f 60f
7:10pm  -   -   -  25 31 mph 998.1mb 59f 60f
7:00pm  -   -   -  25 34 mph 998mb - 60f
6:50pm 12ft 12s 7s 25 34 mph 997.8mb 59f 60f
6:40pm  -   -   -  27 34 mph 997.9mb 59f 60f
6:30pm  -   -   -  27 34 mph 997.7mb 59f 60f
6:20pm  -   -   -  27 36 mph 997.5mb 59f 60f
6:10pm  -   -   -  27 34 mph 997.4mb 59f 60f
6:00pm  -   -   -  27 36 mph 997.4mb 59f 60f
5:50pm 10.5ft 13s 7s 29 38 mph 997mb 59f 60f
5:40pm 10.5ft  -  7s 29 38 mph 996.9mb 59f 60f
5:30pm  -   -   -  27 38 mph 996.9mb 59f 60f
5:20pm  -   -   -  20 27 mph 997.1mb 59f 58f
5:10pm  -   -   -  18 22 mph 997.2mb 59f 57f
5:00pm  -   -   -  18 27 mph 997.3mb 59f 57f
4:50pm 10ft 13s 8s 18 22 mph 997.7mb 59f 57f
4:40pm 10ft  -  8s 16 20 mph 997.9mb 59f 56f
4:30pm  -   -   -  16 20 mph 998.3mb 59f 56f
4:20pm  -   -   -  16 20 mph 998.5mb 59f 56f
4:10pm  -   -   -  18 25 mph 998.7mb 59f 56f
4:00pm  -   -   -  18 25 mph 998.9mb 59f 57f
3:50pm 10ft 13s 7s 20 25 mph 999mb 59f 57f
3:40pm 10ft  -  7s 18 22 mph 999.1mb 59f 56f
3:30pm  -   -   -  20 29 mph 999.4mb 59f 57f
3:20pm  -   -   -  20 27 mph 999.4mb 59f 58f
3:10pm  -   -   -  22 29 mph 999.4mb 59f 59f
3:00pm  -   -   -  22 27 mph 999.4mb 59f 59f
2:50pm 11ft 13s 8s 22 27 mph 999.5mb 59f 59f
2:40pm  -   -   -  20 25 mph 999.4mb 59f 59f
2:30pm  -   -   -  20 25 mph 999.8mb 59f 59f
2:20pm  -   -   -  20 25 mph 999.7mb 59f 59f
2:10pm  -   -   -  20 27 mph 999.7mb 59f 59f
2:00pm  -   -   -  20 27 mph 999.9mb 59f 59f
1:50pm 11.5ft 13s 8s 20 25 mph 1000mb 59f 59f
1:40pm 11.5ft  -  8s 20 27 mph 1000.2mb 59f 59f
1:30pm  -   -   -  20 27 mph 1000.1mb 59f 59f
1:20pm  -   -   -  20 27 mph 1000.1mb 59f 59f
1:10pm  -   -   -  20 25 mph 1000.2mb - 59f
1:00pm  -   -   -  20 25 mph 1000.3mb 59f 59f
12:50pm 11ft 14s 8s 20 25 mph 1000.3mb - 59f
12:40pm 11ft  -  8s 20 25 mph 1000.3mb 59f 59f
12:30pm  -   -   -  20 25 mph 1000.2mb 59f 59f
12:20pm  -   -   -  20 25 mph 1000.2mb 59f 59f
12:10pm  -   -   -  20 27 mph 1000.4mb 59f 59f
12:00pm  -   -   -  20 27 mph 1000.4mb 59f 59f
11:50am 11.5ft 13s 7s 20 27 mph 1000.7mb 59f 59f
11:40am 11.5ft  -  7s 20 27 mph 1000.6mb 59f 59f
11:30am  -   -   -  22 29 mph 1000.6mb 59f 59f
11:20am  -   -   -  22 29 mph 1000.7mb 59f 59f
11:10am  -   -   -  22 27 mph 1000.8mb 59f 59f
11:00am  -   -   -  20 25 mph 1000.6mb 59f 59f
10:50am 12ft 13s 8s 20 27 mph 1000.6mb 59f 59f
10:40am 12ft  -  8s 22 29 mph 1001mb 59f 59f
10:30am  -   -   -  22 27 mph 1001.1mb 59f 59f
10:20am  -   -   -  22 27 mph 1001mb 59f 59f
10:10am  -   -   -  20 29 mph 1001.1mb 59f 59f
10:00am  -   -   -  20 27 mph 1001mb 59f 59f
9:50am 13ft 13s 7s 20 25 mph 1000.9mb 59f 59f
9:40am 13ft  -  7s 22 31 mph 1000.8mb 59f 59f
9:30am  -   -   -  22 29 mph 1000.8mb 59f 59f
9:20am  -   -   -  22 29 mph 1000.7mb 59f 59f
9:10am  -   -   -  22 29 mph 1000.7mb 59f 59f
9:00am  -   -   -  22 31 mph 1000.6mb 59f 59f
8:50am 13ft 13s 8s 22 29 mph 1000.5mb 59f 59f
8:40am  -   -   -  22 29 mph 1000.3mb 59f 59f
8:30am  -   -   -  22 29 mph 1000.3mb 59f 59f
8:20am  -   -   -  25 31 mph 1000.1mb - 59f
8:10am  -   -   -  27 34 mph 1000.2mb 59f 59f
8:00am  -   -   -  25 31 mph 1000.1mb 59f 59f
7:50am 13ft 13s 8s 22 29 mph 1000mb 59f 59f
7:40am  -   -   -  22 27 mph 999.7mb 59f 59f
7:30am  -   -   -  20 27 mph 999.9mb 59f 59f
7:20am  -   -   -  22 29 mph 999.9mb 59f 59f
7:10am  -   -   -  25 31 mph 1000mb 59f 59f
7:00am  -   -   -  25 31 mph 999.7mb 59f 59f
6:50am 13ft 13s 8s 25 34 mph 999.7mb 59f 59f
6:40am 13ft  -  8s 25 34 mph 999.6mb 59f 59f
6:30am  -   -   -  27 34 mph 999.4mb 59f 59f
6:20am  -   -   -  27 36 mph 999.4mb 59f 59f
6:10am  -   -   -  27 34 mph 999.2mb 59f 59f
6:00am  -   -   -  29 36 mph 999mb 59f 59f
5:50am 13ft 14s 7s 29 36 mph 998.8mb 59f 59f
5:40am 13ft  -  7s 29 38 mph 998.7mb 59f 59f
5:30am  -   -   -  29 40 mph 998.6mb 59f 59f
5:20am  -   -   -  31 40 mph 998.3mb 59f 60f
5:10am  -   -   -  27 38 mph 998.1mb 59f 60f
5:00am  -   -   -  27 34 mph 998.2mb 59f 59f
4:50am 13ft 14s 8s 25 31 mph 998.2mb 59f 59f
4:40am 13ft  -  8s 22 31 mph 998.2mb 59f 60f
4:30am  -   -   -  22 29 mph 998.3mb 59f 60f
4:20am  -   -   -  18 27 mph 998.4mb 59f 59f
4:10am  -   -   -  18 22 mph 998.4mb 59f 59f
4:00am  -   -   -  20 25 mph 998.5mb 59f 58f
3:50am 12.5ft 13s 8s 20 29 mph 998.6mb 59f 57f
3:40am 12.5ft  -  8s 22 34 mph 999.1mb 59f 56f
3:30am  -   -   -  27 34 mph 999.2mb 59f 56f
3:20am  -   -   -  27 38 mph 999.4mb 59f 56f
3:10am  -   -   -  27 38 mph 999.4mb 59f 55f
3:00am  -   -   -  31 43 mph 999.9mb 59f 55f
2:50am 13.5ft 14s 8s 29 40 mph 1000.1mb 59f 55f
2:40am 13.5ft  -  8s 29 38 mph 1000.3mb 59f 55f
2:30am  -   -   -  29 38 mph 1000.7mb 59f 55f
2:20am  -   -   -  29 38 mph 1001.2mb 59f 55f
2:10am  -   -   -  29 40 mph 1001.5mb 59f 55f
2:00am  -   -   -  29 38 mph 1001.9mb 59f 55f
1:50am 13ft 13s 9s 25 34 mph 1002.4mb 59f 54f
1:40am 13ft  -  9s 27 38 mph 1002.9mb 59f 54f
1:30am  -   -   -  25 31 mph 1003.3mb 59f 54f
1:20am  -   -   -  25 34 mph 1003.3mb 59f 54f
1:10am  -   -   -  25 31 mph 1003.9mb 59f 54f
1:00am  -   -   -  22 29 mph 1004.2mb - 54f
12:50am 15.5ft 14s 10s 22 29 mph 1004.7mb - 53f
12:40am 15.5ft  -  10s 20 29 mph 1004.9mb 59f 53f
12:30am  -   -   -  20 29 mph 1005.3mb 59f 53f
12:20am  -   -   -  22 29 mph 1005.4mb 59f 53f
12:10am  -   -   -  20 27 mph 1005.7mb 59f 53f
12:00am  -   -   -  20 27 mph 1006.1mb 59f 53f
Fri 10/20 11:50pm 14ft 13s 9s 20 27 mph 1006.4mb 59f 53f
11:40pm 14ft  -  9s 20 27 mph 1006.5mb 59f 53f
11:20pm  -   -   -  20 25 mph 1006.8mb 59f 53f
11:10pm  -   -   -  20 25 mph 1007.1mb 59f 53f
11:00pm  -   -   -  20 25 mph 1007.3mb 59f 53f
10:50pm 14.5ft 15s 9s 20 27 mph 1007.2mb 59f 54f
10:40pm  -   -   -  20 25 mph 1007.4mb 59f 54f
10:30pm  -   -   -  20 25 mph 1007.4mb 59f 54f
10:20pm  -   -   -  18 25 mph 1007.5mb 59f 55f
10:10pm  -   -   -  18 25 mph 1007.6mb 59f 55f
10:00pm  -   -   -  18 27 mph 1007.9mb 59f 55f
9:50pm 15ft 14s 10s 18 25 mph 1008.1mb 59f 54f
9:40pm 15ft  -  10s 18 22 mph 1008.1mb 59f 54f
9:30pm  -   -   -  16 22 mph 1008.2mb 59f 54f
9:20pm  -   -   -  16 22 mph 1008.5mb 59f 54f
9:10pm  -   -   -  13 20 mph 1008.7mb 59f 54f
9:00pm  -   -   -  16 20 mph 1009mb 59f 54f
8:50pm 15.5ft 15s 9s 13 20 mph 1009.1mb 59f 54f
8:40pm 15.5ft  -  9s 13 20 mph 1009.3mb 59f 54f
8:30pm  -   -   -  13 18 mph 1009.4mb - 53f
8:20pm  -   -   -  13 22 mph 1009.6mb 59f 53f
8:10pm  -   -   -  16 20 mph 1009.8mb 59f 54f
8:00pm  -   -   -  16 22 mph 1010mb 59f 54f
7:50pm 15.5ft 15s 9s 16 22 mph 1009.9mb 59f 53f
7:40pm 15.5ft  -  9s 16 22 mph 1009.9mb 59f 54f
7:30pm  -   -   -  16 22 mph 1010mb 59f 54f
7:20pm  -   -   -  16 22 mph 1010mb 59f 53f
7:10pm  -   -   -  16 22 mph 1010mb 59f 54f
7:00pm  -   -   -  16 22 mph 1009.9mb 59f 54f
6:50pm 15ft 15s 9s 16 22 mph 1010mb 59f 54f
6:40pm 15ft  -  9s 18 22 mph 1010.1mb 59f 53f
6:30pm  -   -   -  16 22 mph 1010.1mb 59f 53f
6:20pm  -   -   -  16 20 mph 1010.2mb 59f 53f
6:10pm  -   -   -  16 22 mph 1010.1mb 59f 53f
6:00pm  -   -   -  16 22 mph 1009.9mb 59f 53f
5:50pm 17.5ft 15s 9s 16 25 mph 1009.8mb 59f 53f
5:40pm 17.5ft  -  9s 16 22 mph 1009.7mb 59f 53f
5:30pm  -   -   -  18 25 mph 1009.7mb 59f 53f
5:20pm  -   -   -  18 25 mph 1009.6mb 59f 53f
5:10pm  -   -   -  18 27 mph 1009.7mb 59f 53f
5:00pm  -   -   -  16 27 mph 1009.7mb - 53f
4:50pm 18.5ft 15s 9s 16 25 mph 1009.7mb 59f 52f
4:40pm 18.5ft  -  9s 18 22 mph 1009.6mb 59f 52f
4:30pm  -   -   -  20 29 mph 1009.6mb 59f 51f
4:20pm  -   -   -  25 36 mph 1009.6mb 59f 51f
4:10pm  -   -   -  31 40 mph 1009.4mb 59f 51f
4:00pm  -   -   -  29 38 mph 1009.3mb 59f 52f
3:50pm 17ft 12s 9s 18 27 mph 1009.2mb 59f 53f
2:50pm 17.5ft 15s 9s 20 29 mph 1008.4mb 59f 53f
2:20pm  -   -   -  22 29 mph 1008.2mb 59f 53f
2:10pm  -   -   -  25 31 mph 1008.1mb 59f 53f
2:00pm  -   -   -  22 31 mph 1008mb 59f 53f
1:50pm 16.5ft 13s 9s 22 31 mph 1007.9mb 59f 53f
1:40pm 16.5ft  -  9s 25 31 mph 1007.8mb 59f 53f
1:30pm  -   -   -  22 31 mph 1007.8mb 59f 53f
1:20pm  -   -   -  22 34 mph 1007.8mb 59f 53f
1:10pm  -   -   -  25 31 mph 1007.6mb 59f 54f
1:00pm  -   -   -  20 31 mph 1007.5mb - 53f
12:50pm 19.5ft 13s 9s 22 36 mph 1007.7mb 59f 51f
12:40pm 19.5ft  -  9s 18 38 mph 1007.4mb 59f 52f
12:30pm  -   -   -  13 22 mph 1007.4mb 59f 51f
12:20pm  -   -   -  16 25 mph 1007.4mb 59f 52f
12:10pm  -   -   -  18 27 mph 1007.2mb 59f 52f
12:00pm  -   -   -  18 25 mph 1007.1mb 59f 51f
11:50am 22.5ft 15s 10s 29 38 mph 1007mb 59f 50f
11:40am 22.5ft  -  10s 25 40 mph 1006.9mb 59f 53f
11:30am  -   -   -  25 31 mph 1006.6mb 59f 54f
11:20am  -   -   -  25 34 mph 1006.4mb 59f 53f
11:10am  -   -   -  25 34 mph 1006.5mb 59f 53f
11:00am  -   -   -  22 34 mph 1006.3mb 59f 53f
10:50am 20.5ft 16s 10s 20 29 mph 1006.4mb 59f 51f
10:40am 20.5ft  -  10s 27 38 mph 1006.4mb 59f 51f
10:30am  -   -   -  27 47 mph 1006.2mb - 53f
10:20am  -   -   -  25 31 mph 1005.9mb 59f 54f
10:10am  -   -   -  25 34 mph 1005.9mb 59f 53f
10:00am  -   -   -  27 36 mph 1005.8mb 59f 54f
9:50am 21ft 16s 10s 27 36 mph 1005.6mb 59f 54f
9:40am 21ft  -  10s 27 34 mph 1005.4mb 59f 54f
9:30am  -   -   -  27 36 mph 1005.3mb 59f 54f
9:20am  -   -   -  29 36 mph 1005.3mb 59f 54f
9:10am  -   -   -  27 36 mph 1005.2mb 59f 54f
9:00am  -   -   -  27 36 mph 1005mb 59f 54f
8:50am 20.5ft 16s 11s 27 36 mph 1004.9mb 59f 54f
8:40am  -   -   -  27 36 mph 1004.6mb 59f 54f
8:30am  -   -   -  27 38 mph 1004.5mb 59f 54f
8:20am  -   -   -  27 36 mph 1004.4mb 59f 53f
8:10am  -   -   -  29 38 mph 1004.3mb 60f 53f
8:00am  -   -   -  27 36 mph 1004.2mb 60f 54f
7:50am 19.5ft 15s 10s 27 36 mph 1004mb 60f 53f
7:40am 19.5ft  -  10s 27 34 mph 1003.9mb 60f 54f
7:30am  -   -   -  29 36 mph 1004mb 60f 54f
7:20am  -   -   -  27 36 mph 1003.9mb 60f 54f
7:10am  -   -   -  25 34 mph 1003.8mb 60f 54f
7:00am  -   -   -  20 31 mph 1003.8mb 60f 53f
6:50am 21.5ft 16s 11s 27 40 mph 1003.9mb 60f 52f
6:40am  -   -   -  25 31 mph 1003.5mb 60f 54f
6:30am  -   -   -  27 31 mph 1003.6mb 60f 53f
6:20am  -   -   -  22 34 mph 1003.4mb 60f 54f
6:10am  -   -   -  25 31 mph 1003.3mb 60f 53f
6:00am  -   -   -  25 31 mph 1003.1mb 60f 53f
5:50am 22.5ft 16s 11s 22 36 mph 1003.1mb 60f 52f
5:40am 22.5ft  -  11s 27 34 mph 1003mb 60f 53f
5:30am  -   -   -  22 29 mph 1002.8mb 60f 53f
5:20am  -   -   -  22 29 mph 1002.8mb 60f 53f
5:10am  -   -   -  22 31 mph 1002.8mb 60f 53f
5:00am  -   -   -  25 31 mph 1002.8mb 60f 53f
4:50am 19.5ft 15s 10s 27 36 mph 1002.8mb 60f 53f
4:40am  -   -   -  25 31 mph 1002.8mb 60f 54f
4:30am  -   -   -  22 29 mph 1002.5mb - 54f
4:20am  -   -   -  27 34 mph 1002.4mb 60f 53f
4:10am  -   -   -  25 34 mph 1002.2mb 60f 54f
4:00am  -   -   -  20 27 mph 1002.1mb 60f 54f
3:50am 22ft 16s 11s 25 31 mph 1002mb 60f 54f
3:40am 22ft  -  11s 25 31 mph 1001.9mb 60f 54f
3:30am  -   -   -  22 31 mph 1001.7mb 60f 54f
3:20am  -   -   -  22 31 mph 1001.7mb 60f 54f
3:10am  -   -   -  20 29 mph 1001.6mb 60f 55f
3:00am  -   -   -  22 29 mph 1001.5mb 60f 54f
2:50am 24.5ft 17s 11s 22 31 mph 1001.3mb 60f 54f
2:40am 24.5ft  -  11s 22 31 mph 1001.2mb 60f 54f
2:30am  -   -   -  22 29 mph 1001.1mb 60f 54f
2:20am  -   -   -  22 31 mph 1001mb 60f 54f
2:10am  -   -   -  25 36 mph 1000.9mb 60f 54f
2:00am  -   -   -  20 27 mph 1000.8mb 60f 54f
1:50am 21.5ft 15s 10s 22 36 mph 1000.8mb 60f 54f
1:40am 21.5ft  -  10s 25 34 mph 1000.6mb 60f 54f
1:30am  -   -   -  25 31 mph 1000.5mb 60f 55f
1:20am  -   -   -  27 34 mph 1000.3mb 60f 55f
1:10am  -   -   -  27 34 mph 1000.3mb 60f 55f
1:00am  -   -   -  25 34 mph 1000.1mb 60f 55f
12:50am 23.5ft 17s 11s 25 31 mph 1000.1mb 60f 55f
12:40am 23.5ft  -  11s 25 34 mph 1000mb - 55f
12:30am  -   -   -  25 34 mph 999.9mb 60f 54f
12:20am  -   -   -  27 38 mph 999.8mb 60f 55f
12:10am  -   -   -  25 34 mph 999.7mb 60f 55f
12:00am  -   -   -  27 36 mph 999.6mb 60f 55f
Thu 10/19 11:50pm 23ft 14s 10s 27 34 mph 999.6mb 60f 55f
11:40pm 23ft  -  10s 27 34 mph 999.5mb 60f 55f
11:20pm  -   -   -  27 36 mph 999.2mb 60f 55f
11:10pm  -   -   -  27 36 mph 999.1mb 60f 56f
11:00pm  -   -   -  25 36 mph 998.9mb 60f 55f
10:50pm 24.5ft 16s 11s 25 34 mph 998.7mb 60f 56f
10:40pm 24.5ft  -  11s 25 34 mph 998.7mb 60f 56f
10:30pm  -   -   -  27 36 mph 998.7mb - 56f
10:20pm  -   -   -  25 34 mph 998.7mb 60f 56f
10:10pm  -   -   -  25 36 mph 998.6mb 60f 56f
10:00pm  -   -   -  25 34 mph 998.6mb 60f 56f
9:50pm 25ft 16s 11s 25 31 mph 998.5mb 60f 56f
9:40pm 25ft  -  11s 25 31 mph 998.6mb 60f 56f
9:30pm  -   -   -  25 34 mph 998.4mb 60f 56f
9:20pm  -   -   -  25 31 mph 998.4mb 60f 56f
9:10pm  -   -   -  25 34 mph 998.2mb 60f 56f
9:00pm  -   -   -  25 31 mph 998.3mb 60f 56f
8:50pm 26ft 17s 12s 25 31 mph 998.3mb 60f 56f
8:40pm  -   -   -  25 31 mph 998.2mb 60f 56f
8:30pm  -   -   -  22 34 mph 998.2mb 60f 56f
8:20pm  -   -   -  20 29 mph 998.3mb 60f 56f
8:10pm  -   -   -  20 29 mph 998.2mb - 55f
8:00pm  -   -   -  22 31 mph 998.2mb 60f 55f
7:50pm 27ft 17s 12s 27 34 mph 998.1mb 60f 55f
7:40pm  -   -   -  22 31 mph 997.9mb 60f 56f
7:30pm  -   -   -  22 29 mph 997.9mb 60f 56f
7:20pm  -   -   -  22 29 mph 997.8mb 60f 56f
7:10pm  -   -   -  20 29 mph 997.7mb 60f 56f
7:00pm  -   -   -  20 29 mph 997.7mb 60f 56f
6:50pm 21.5ft 16s 11s 20 27 mph 997.7mb 60f 56f
6:40pm 21.5ft  -  11s 20 27 mph 997.6mb 60f 56f
6:30pm  -   -   -  20 27 mph 997.5mb 60f 56f
6:20pm  -   -   -  20 29 mph 997.4mb 60f 56f
6:10pm  -   -   -  22 29 mph 997.4mb 60f 56f
6:00pm  -   -   -  20 27 mph 997.3mb 60f 56f
5:50pm 25ft 16s 12s 20 29 mph 997.3mb 60f 56f
5:40pm 25ft  -  12s 20 29 mph 997.2mb 60f 56f
5:30pm  -   -   -  16 27 mph 997.1mb 60f 56f
5:20pm  -   -   -  18 27 mph 997.1mb 60f 56f
5:10pm  -   -   -  20 27 mph 997mb 60f 56f
5:00pm  -   -   -  20 29 mph 996.9mb 60f 56f
4:50pm 23ft 16s 12s 16 25 mph 996.8mb 60f 55f
4:40pm 23ft  -  12s 11 20 mph 996.8mb 60f 55f
4:30pm  -   -   -  13 20 mph 996.8mb 60f 54f
4:20pm  -   -   -  18 25 mph 996.8mb 60f 53f
4:10pm  -   -   -  16 27 mph 996.8mb 60f 54f
4:00pm  -   -   -  9 18 mph 996.5mb 60f 53f
3:50pm 23.5ft 17s 11s 9 18 mph 996.4mb 60f 53f
3:40pm 23.5ft  -  11s 11 20 mph 996.5mb 60f 52f
3:30pm  -   -   -  20 31 mph 996.7mb 60f 52f
3:20pm  -   -   -  22 31 mph 996.9mb 60f 52f
3:10pm  -   -   -  25 36 mph 996.7mb 60f 53f
3:00pm  -   -   -  27 36 mph 996.7mb 60f 52f
2:50pm 23ft 16s 12s 29 38 mph 996.7mb 60f 53f
2:40pm 23ft  -  12s 18 27 mph 996.6mb 60f 55f
2:30pm  -   -   -  18 27 mph 996.4mb 60f 55f
2:20pm  -   -   -  20 29 mph 996.4mb 60f 55f
2:10pm  -   -   -  20 27 mph 996.5mb 60f 55f
2:00pm  -   -   -  18 27 mph 996.4mb 60f 55f
1:50pm 23.5ft 17s 11s 18 29 mph 996.4mb 60f 55f
1:40pm 23.5ft  -  11s 20 29 mph 996.5mb 60f 54f
1:30pm  -   -   -  22 34 mph 996.7mb 60f 55f
1:20pm  -   -   -  27 36 mph 996.6mb 60f 55f
1:10pm  -   -   -  22 36 mph 996.7mb 60f 55f
1:00pm  -   -   -  20 29 mph 996.6mb 60f 55f
12:50pm 23.5ft 17s 11s 22 31 mph 996.5mb 60f 56f
12:40pm  -   -   -  20 29 mph 996.4mb 60f 56f
12:30pm  -   -   -  20 27 mph 996.4mb 60f 55f
12:20pm  -   -   -  22 31 mph 996.4mb 60f 55f
12:10pm  -   -   -  25 34 mph 996.5mb 60f 56f
12:00pm  -   -   -  20 29 mph 996.3mb 60f 56f
11:50am 23.5ft 16s 11s 18 27 mph 996.6mb 60f 56f
11:40am 23.5ft  -  11s 20 29 mph 996.5mb 60f 55f
11:30am  -   -   -  22 31 mph 996.7mb 60f 55f
11:20am  -   -   -  25 34 mph 996.7mb 60f 55f
11:10am  -   -   -  20 29 mph 996.7mb 60f 55f
11:00am  -   -   -  22 31 mph 996.7mb 60f 57f
10:50am 25.5ft 16s 11s 22 29 mph 996.6mb 60f 57f
10:40am 25.5ft  -  11s 22 29 mph 996.8mb 60f 57f
10:30am  -   -   -  25 34 mph 996.9mb 60f 57f
10:20am  -   -   -  22 31 mph 996.9mb 60f 57f
10:10am  -   -   -  25 31 mph 996.9mb 60f 57f
10:00am  -   -   -  25 31 mph 997mb 60f 56f
9:50am 22.5ft 15s 10s 25 34 mph 997mb 60f 57f
9:40am 22.5ft  -  10s 22 29 mph 996.9mb 60f 56f
9:30am  -   -   -  20 29 mph 996.9mb 60f 56f
9:20am  -   -   -  20 31 mph 997mb 60f 56f
9:10am  -   -   -  20 27 mph 997mb 60f 55f
9:00am  -   -   -  22 29 mph 998mb 60f 55f
8:50am 26ft 15s 10s 20 27 mph 997.3mb 60f 55f
8:40am 26ft  -  10s 22 31 mph 997.1mb 60f 55f
8:30am  -   -   -  29 40 mph 997.5mb 60f 55f
8:20am  -   -   -  29 38 mph 997.4mb 60f 55f
8:10am  -   -   -  27 36 mph 997.5mb 60f 55f
8:00am  -   -   -  29 38 mph 997.2mb 60f 57f
7:50am 23.5ft 13s 10s 27 36 mph 997mb 60f 58f
7:40am  -   -   -  27 36 mph 996.9mb 60f 58f
7:30am  -   -   -  29 36 mph 996.8mb 60f 58f
7:20am  -   -   -  27 36 mph 996.9mb 60f 58f
7:10am  -   -   -  29 36 mph 997mb 60f 57f
7:00am  -   -   -  29 40 mph 997.1mb - 57f
6:50am 22.5ft 13s 9s 29 38 mph 997.1mb 60f 58f
6:40am  -   -   -  29 36 mph 997.1mb 60f 58f
6:30am  -   -   -  29 38 mph 997.1mb 60f 58f
6:20am  -   -   -  29 38 mph 997.1mb 60f 58f
6:10am  -   -   -  27 38 mph 997.2mb 60f 58f